Time,TemperatureF,DewpointF,PressureIn,WindDirection,WindDirectionDegrees,WindSpeedMPH,WindSpeedGustMPH,Humidity,HourlyPrecipIn,Conditions,Clouds,dailyrainin,SoftwareType,DateUTC
2013-02-24 00:00:00,11.0,9.0,-100.00,NW,317,14.0,32.0,92,-99.99,,,-99.99,,2013-02-24 07:00:00,
2013-02-24 00:32:00,11.0,9.0,-100.00,NW,317,14.0,32.0,92,-99.99,,,-99.99,,2013-02-24 07:32:00,
2013-02-24 00:42:00,11.0,9.0,-100.00,NW,317,14.0,32.0,92,-99.99,,,-99.99,,2013-02-24 07:42:00,
2013-02-24 00:52:00,11.0,9.0,-100.00,NW,317,14.0,32.0,92,-99.99,,,-99.99,,2013-02-24 07:52:00,
2013-02-24 01:00:00,11.0,8.0,-100.00,NW,318,15.0,34.0,88,-99.99,,,-99.99,,2013-02-24 08:00:00,
2013-02-24 01:32:00,11.0,8.0,-100.00,NW,318,15.0,34.0,88,-99.99,,,-99.99,,2013-02-24 08:32:00,
2013-02-24 01:42:00,11.0,8.0,-100.00,NW,318,15.0,34.0,88,-99.99,,,-99.99,,2013-02-24 08:42:00,
2013-02-24 01:53:00,11.0,8.0,-100.00,NW,318,15.0,34.0,88,-99.99,,,-99.99,,2013-02-24 08:53:00,
2013-02-24 02:00:00,11.0,8.0,-100.00,NW,324,13.0,27.0,87,-99.99,,,-99.99,,2013-02-24 09:00:00,
2013-02-24 02:32:00,11.0,8.0,-100.00,NW,324,13.0,27.0,87,-99.99,,,-99.99,,2013-02-24 09:32:00,
2013-02-24 02:42:00,11.0,8.0,-100.00,NW,324,13.0,27.0,87,-99.99,,,-99.99,,2013-02-24 09:42:00,
2013-02-24 02:52:00,11.0,8.0,-100.00,NW,324,13.0,27.0,87,-99.99,,,-99.99,,2013-02-24 09:52:00,
2013-02-24 03:00:00,10.0,8.0,-100.00,NW,320,14.0,25.0,90,-99.99,,,-99.99,,2013-02-24 10:00:00,
2013-02-24 03:32:00,10.0,8.0,-100.00,NW,320,14.0,25.0,90,-99.99,,,-99.99,,2013-02-24 10:32:00,
2013-02-24 03:42:00,10.0,8.0,-100.00,NW,320,14.0,25.0,90,-99.99,,,-99.99,,2013-02-24 10:42:00,
2013-02-24 03:52:00,10.0,8.0,-100.00,NW,320,14.0,25.0,90,-99.99,,,-99.99,,2013-02-24 10:52:00,
2013-02-24 04:00:00,10.0,8.0,-100.00,NW,322,16.0,28.0,89,-99.99,,,-99.99,,2013-02-24 11:00:00,
2013-02-24 04:32:00,10.0,8.0,-100.00,NW,322,16.0,28.0,89,-99.99,,,-99.99,,2013-02-24 11:32:00,
2013-02-24 04:42:00,10.0,8.0,-100.00,NW,322,16.0,28.0,89,-99.99,,,-99.99,,2013-02-24 11:42:00,
2013-02-24 04:52:00,10.0,8.0,-100.00,NW,322,16.0,28.0,89,-99.99,,,-99.99,,2013-02-24 11:52:00,
2013-02-24 05:33:00,10.0,8.0,-100.00,NW,325,13.0,27.0,90,-99.99,,,-99.99,,2013-02-24 12:33:00,
2013-02-24 05:46:00,10.0,8.0,-100.00,NW,325,13.0,27.0,90,-99.99,,,-99.99,,2013-02-24 12:46:00,
2013-02-24 05:56:00,10.0,8.0,-100.00,NW,325,13.0,27.0,90,-99.99,,,-99.99,,2013-02-24 12:56:00,
2013-02-24 06:00:00,10.0,8.0,-100.00,NNW,328,9.0,25.0,91,-99.99,,,-99.99,,2013-02-24 13:00:00,
2013-02-24 06:35:00,10.0,8.0,-100.00,NNW,328,9.0,25.0,91,-99.99,,,-99.99,,2013-02-24 13:35:00,
2013-02-24 06:45:00,10.0,8.0,-100.00,NNW,328,9.0,25.0,91,-99.99,,,-99.99,,2013-02-24 13:45:00,
2013-02-24 06:54:00,10.0,8.0,-100.00,NNW,328,9.0,25.0,91,-99.99,,,-99.99,,2013-02-24 13:54:00,
2013-02-24 07:00:00,9.0,7.0,-100.00,NW,318,10.0,21.0,89,-99.99,,,-99.99,,2013-02-24 14:00:00,
2013-02-24 07:34:00,9.0,7.0,-100.00,NW,318,10.0,21.0,89,-99.99,,,-99.99,,2013-02-24 14:34:00,
2013-02-24 07:45:00,9.0,7.0,-100.00,NW,318,10.0,21.0,89,-99.99,,,-99.99,,2013-02-24 14:45:00,
2013-02-24 07:54:00,9.0,7.0,-100.00,NW,318,10.0,21.0,89,-99.99,,,-99.99,,2013-02-24 14:54:00,
2013-02-24 08:00:00,9.0,7.0,-100.00,NNW,333,7.0,17.0,89,-99.99,,,-99.99,,2013-02-24 15:00:00,
2013-02-24 08:32:00,9.0,7.0,-100.00,NNW,333,7.0,17.0,89,-99.99,,,-99.99,,2013-02-24 15:32:00,
2013-02-24 08:42:00,9.0,7.0,-100.00,NNW,333,7.0,17.0,89,-99.99,,,-99.99,,2013-02-24 15:42:00,
2013-02-24 08:52:00,9.0,7.0,-100.00,NNW,333,7.0,17.0,89,-99.99,,,-99.99,,2013-02-24 15:52:00,
2013-02-24 09:00:00,11.0,8.0,-100.00,NNW,339,4.0,9.0,86,-99.99,,,-99.99,,2013-02-24 16:00:00,
2013-02-24 09:32:00,11.0,8.0,-100.00,NNW,339,4.0,9.0,86,-99.99,,,-99.99,,2013-02-24 16:32:00,
2013-02-24 09:42:00,11.0,8.0,-100.00,NNW,339,4.0,9.0,86,-99.99,,,-99.99,,2013-02-24 16:42:00,
2013-02-24 09:52:00,11.0,8.0,-100.00,NNW,339,4.0,9.0,86,-99.99,,,-99.99,,2013-02-24 16:52:00,
2013-02-24 10:00:00,13.0,9.0,-100.00,NNW,341,3.0,8.0,83,-99.99,,,-99.99,,2013-02-24 17:00:00,
2013-02-24 10:32:00,13.0,9.0,-100.00,NNW,341,3.0,8.0,83,-99.99,,,-99.99,,2013-02-24 17:32:00,
2013-02-24 10:42:00,13.0,9.0,-100.00,NNW,341,3.0,8.0,83,-99.99,,,-99.99,,2013-02-24 17:42:00,
2013-02-24 10:52:00,13.0,9.0,-100.00,NNW,341,3.0,8.0,83,-99.99,,,-99.99,,2013-02-24 17:52:00,
2013-02-24 11:00:00,14.0,10.0,-100.00,North,349,3.0,11.0,81,-99.99,,,-99.99,,2013-02-24 18:00:00,
2013-02-24 11:32:00,14.0,10.0,-100.00,North,349,3.0,11.0,81,-99.99,,,-99.99,,2013-02-24 18:32:00,
2013-02-24 11:42:00,14.0,10.0,-100.00,North,349,3.0,11.0,81,-99.99,,,-99.99,,2013-02-24 18:42:00,
2013-02-24 11:52:00,14.0,10.0,-100.00,North,349,3.0,11.0,81,-99.99,,,-99.99,,2013-02-24 18:52:00,
2013-02-24 12:00:00,17.0,11.0,-100.00,North,352,3.0,9.0,79,-99.99,,,-99.99,,2013-02-24 19:00:00,
2013-02-24 12:32:00,17.0,11.0,-100.00,North,352,3.0,9.0,79,-99.99,,,-99.99,,2013-02-24 19:32:00,
2013-02-24 12:42:00,17.0,11.0,-100.00,North,352,3.0,9.0,79,-99.99,,,-99.99,,2013-02-24 19:42:00,
2013-02-24 12:52:00,17.0,11.0,-100.00,North,352,3.0,9.0,79,-99.99,,,-99.99,,2013-02-24 19:52:00,
2013-02-24 13:00:00,17.0,12.0,-100.00,NNW,334,4.0,12.0,79,-99.99,,,-99.99,,2013-02-24 20:00:00,
2013-02-24 13:32:00,17.0,12.0,-100.00,NNW,334,4.0,12.0,79,-99.99,,,-99.99,,2013-02-24 20:32:00,
2013-02-24 13:42:00,17.0,12.0,-100.00,NNW,334,4.0,12.0,79,-99.99,,,-99.99,,2013-02-24 20:42:00,
2013-02-24 13:52:00,17.0,12.0,-100.00,NNW,334,4.0,12.0,79,-99.99,,,-99.99,,2013-02-24 20:52:00,
2013-02-24 14:00:00,19.0,14.0,-100.00,NNW,327,4.0,10.0,81,-99.99,,,-99.99,,2013-02-24 21:00:00,
2013-02-24 14:32:00,19.0,14.0,-100.00,NNW,327,4.0,10.0,81,-99.99,,,-99.99,,2013-02-24 21:32:00,
2013-02-24 14:42:00,19.0,14.0,-100.00,NNW,327,4.0,10.0,81,-99.99,,,-99.99,,2013-02-24 21:42:00,
2013-02-24 14:52:00,19.0,14.0,-100.00,NNW,327,4.0,10.0,81,-99.99,,,-99.99,,2013-02-24 21:52:00,
2013-02-24 15:00:00,21.0,15.0,-100.00,NNW,329,3.0,15.0,79,-99.99,,,-99.99,,2013-02-24 22:00:00,
2013-02-24 15:32:00,21.0,15.0,-100.00,NNW,329,3.0,15.0,79,-99.99,,,-99.99,,2013-02-24 22:32:00,
2013-02-24 15:42:00,21.0,15.0,-100.00,NNW,329,3.0,15.0,79,-99.99,,,-99.99,,2013-02-24 22:42:00,
2013-02-24 15:52:00,21.0,15.0,-100.00,NNW,329,3.0,15.0,79,-99.99,,,-99.99,,2013-02-24 22:52:00,
2013-02-24 16:00:00,19.0,13.0,-100.00,NW,317,6.0,17.0,77,-99.99,,,-99.99,,2013-02-24 23:00:00,
2013-02-24 16:32:00,19.0,13.0,-100.00,NW,317,6.0,17.0,77,-99.99,,,-99.99,,2013-02-24 23:32:00,
2013-02-24 16:42:00,19.0,13.0,-100.00,NW,317,6.0,17.0,77,-99.99,,,-99.99,,2013-02-24 23:42:00,
2013-02-24 16:52:00,19.0,13.0,-100.00,NW,317,6.0,17.0,77,-99.99,,,-99.99,,2013-02-24 23:52:00,
2013-02-24 17:00:00,17.0,12.0,-100.00,WNW,299,7.0,15.0,79,-99.99,,,-99.99,,2013-02-25 00:00:00,
2013-02-24 17:32:00,17.0,12.0,-100.00,WNW,299,7.0,15.0,79,-99.99,,,-99.99,,2013-02-25 00:32:00,
2013-02-24 17:42:00,17.0,12.0,-100.00,WNW,299,7.0,15.0,79,-99.99,,,-99.99,,2013-02-25 00:42:00,
2013-02-24 17:52:00,17.0,12.0,-100.00,WNW,299,7.0,15.0,79,-99.99,,,-99.99,,2013-02-25 00:52:00,
2013-02-24 18:00:00,16.0,12.0,-100.00,WNW,292,5.0,15.0,86,-99.99,,,-99.99,,2013-02-25 01:00:00,
2013-02-24 18:32:00,16.0,12.0,-100.00,WNW,292,5.0,15.0,86,-99.99,,,-99.99,,2013-02-25 01:32:00,
2013-02-24 18:42:00,16.0,12.0,-100.00,WNW,292,5.0,15.0,86,-99.99,,,-99.99,,2013-02-25 01:42:00,
2013-02-24 18:52:00,16.0,12.0,-100.00,WNW,292,5.0,15.0,86,-99.99,,,-99.99,,2013-02-25 01:52:00,
2013-02-24 19:00:00,12.0,10.0,-100.00,WNW,282,10.0,21.0,88,-99.99,,,-99.99,,2013-02-25 02:00:00,
2013-02-24 19:32:00,12.0,10.0,-100.00,WNW,282,10.0,21.0,88,-99.99,,,-99.99,,2013-02-25 02:32:00,
2013-02-24 19:42:00,12.0,10.0,-100.00,WNW,282,10.0,21.0,88,-99.99,,,-99.99,,2013-02-25 02:42:00,
2013-02-24 19:52:00,12.0,10.0,-100.00,WNW,282,10.0,21.0,88,-99.99,,,-99.99,,2013-02-25 02:52:00,
2013-02-24 20:00:00,12.0,9.0,-100.00,West,268,7.0,20.0,88,-99.99,,,-99.99,,2013-02-25 03:00:00,
2013-02-24 20:32:00,12.0,9.0,-100.00,West,268,7.0,20.0,88,-99.99,,,-99.99,,2013-02-25 03:32:00,
2013-02-24 20:42:00,12.0,9.0,-100.00,West,268,7.0,20.0,88,-99.99,,,-99.99,,2013-02-25 03:42:00,
2013-02-24 20:52:00,12.0,9.0,-100.00,West,268,7.0,20.0,88,-99.99,,,-99.99,,2013-02-25 03:52:00,
2013-02-24 21:00:00,12.0,8.0,-100.00,West,263,3.0,8.0,83,-99.99,,,-99.99,,2013-02-25 04:00:00,
2013-02-24 21:32:00,12.0,8.0,-100.00,West,263,3.0,8.0,83,-99.99,,,-99.99,,2013-02-25 04:32:00,
2013-02-24 21:42:00,12.0,8.0,-100.00,West,263,3.0,8.0,83,-99.99,,,-99.99,,2013-02-25 04:42:00,
2013-02-24 21:52:00,12.0,8.0,-100.00,West,263,3.0,8.0,83,-99.99,,,-99.99,,2013-02-25 04:52:00,
2013-02-24 22:00:00,12.0,8.0,-100.00,West,277,8.0,20.0,83,-99.99,,,-99.99,,2013-02-25 05:00:00,
2013-02-24 22:32:00,12.0,8.0,-100.00,West,277,8.0,20.0,83,-99.99,,,-99.99,,2013-02-25 05:32:00,
2013-02-24 22:42:00,12.0,8.0,-100.00,West,277,8.0,20.0,83,-99.99,,,-99.99,,2013-02-25 05:42:00,
2013-02-24 22:52:00,12.0,8.0,-100.00,West,277,8.0,20.0,83,-99.99,,,-99.99,,2013-02-25 05:52:00,
2013-02-24 23:00:00,12.0,7.0,-100.00,WNW,295,9.0,18.0,81,-99.99,,,-99.99,,2013-02-25 06:00:00,
2013-02-24 23:32:00,12.0,7.0,-100.00,WNW,295,9.0,18.0,81,-99.99,,,-99.99,,2013-02-25 06:32:00,
2013-02-24 23:42:00,12.0,7.0,-100.00,WNW,295,9.0,18.0,81,-99.99,,,-99.99,,2013-02-25 06:42:00,
2013-02-24 23:52:00,12.0,7.0,-100.00,WNW,295,9.0,18.0,81,-99.99,,,-99.99,,2013-02-25 06:52:00,